Time;durP1;ratioP1;P1;durP2;ratioP2;P2;SDS_P1;SDS_P2;PMS_P1;PMS_P2;Temp;Humidity;BMP_temperature;BMP_pressure;BME280_temperature;BME280_humidity;BME280_pressure;Samples;Min_cycle;Max_cycle;Signal;HPM_P1;HPM_P2
2022/06/05 00:02:33;;;;;;;5.50;4.97;;;;;;;;;;5043692;28;20021;-81
2022/06/05 00:05:06;;;;;;;7.97;5.10;;;;;;;;;;5052530;28;20016;-79
2022/06/05 00:07:42;;;;;;;7.35;4.70;;;;;;;;;;5038726;28;20086;-81
2022/06/05 00:10:24;;;;;;;6.28;4.75;;;;;;;;;;5040057;28;20025;-82
2022/06/05 00:13:20;;;;;;;5.88;5.28;;;;;;;;;;5039520;28;20024;-82
2022/06/05 00:15:46;;;;;;;8.00;5.10;;;;;;;;;;5040163;28;20029;-82
2022/06/05 00:18:12;;;;;;;9.70;5.40;;;;;;;;;;5040844;28;20030;-79
2022/06/05 00:20:41;;;;;;;6.25;5.32;;;;;;;;;;5041965;28;20021;-80
2022/06/05 00:23:06;;;;;;;7.63;5.95;;;;;;;;;;5039730;28;20400;-81
2022/06/05 00:25:51;;;;;;;9.32;5.03;;;;;;;;;;5039303;28;20024;-81
2022/06/05 00:28:28;;;;;;;5.75;5.13;;;;;;;;;;5040509;28;20108;-80
2022/06/05 00:30:59;;;;;;;7.72;4.97;;;;;;;;;;5038703;28;20028;-81
2022/06/05 00:33:41;;;;;;;6.03;4.97;;;;;;;;;;5046974;28;20023;-80
2022/06/05 00:36:09;;;;;;;6.60;5.25;;;;;;;;;;5053707;28;20060;-79
2022/06/05 00:39:00;;;;;;;6.15;5.03;;;;;;;;;;5058325;28;20043;-80
2022/06/05 00:41:40;;;;;;;6.65;5.68;;;;;;;;;;5055764;28;20025;-80
2022/06/05 00:44:06;;;;;;;6.70;5.03;;;;;;;;;;5021643;28;20030;-81
2022/06/05 00:46:34;;;;;;;6.25;5.10;;;;;;;;;;5021454;28;20580;-77
2022/06/05 00:49:00;;;;;;;6.00;5.40;;;;;;;;;;5042603;28;20017;-77
2022/06/05 00:51:26;;;;;;;8.95;5.43;;;;;;;;;;5043671;28;20029;-78
2022/06/05 00:53:51;;;;;;;7.15;5.50;;;;;;;;;;5044916;28;20025;-80
2022/06/05 00:56:17;;;;;;;6.50;5.30;;;;;;;;;;5041673;28;20033;-78
2022/06/05 00:58:43;;;;;;;7.32;5.40;;;;;;;;;;5040682;28;20051;-80
2022/06/05 01:01:08;;;;;;;7.93;5.80;;;;;;;;;;5042347;28;20026;-79
2022/06/05 01:03:35;;;;;;;10.55;6.13;;;;;;;;;;5045324;28;20056;-80
2022/06/05 01:06:00;;;;;;;7.03;5.50;;;;;;;;;;5047873;28;20021;-81
2022/06/05 01:08:26;;;;;;;7.70;5.53;;;;;;;;;;5041715;28;20022;-80
2022/06/05 01:11:14;;;;;;;7.72;5.88;;;;;;;;;;5040245;28;20027;-80
2022/06/05 01:14:08;;;;;;;6.35;5.65;;;;;;;;;;5038928;28;20744;-81
2022/06/05 01:16:50;;;;;;;8.45;5.65;;;;;;;;;;5004857;28;20033;-80
2022/06/05 01:19:25;;;;;;;8.35;6.25;;;;;;;;;;5047097;28;20116;-80
2022/06/05 01:22:27;;;;;;;9.00;6.70;;;;;;;;;;5038065;28;20036;-80
2022/06/05 01:25:02;;;;;;;8.05;7.13;;;;;;;;;;5032031;28;20031;-81
2022/06/05 01:27:31;;;;;;;8.40;6.65;;;;;;;;;;5037989;28;20035;-81
2022/06/05 01:30:21;;;;;;;8.18;6.70;;;;;;;;;;5038953;28;20076;-81
2022/06/05 01:32:51;;;;;;;8.57;7.35;;;;;;;;;;5043428;28;20159;-79
2022/06/05 01:38:15;;;;;;;10.40;7.50;;;;;;;;;;5016537;28;20054;-80
2022/06/05 01:40:46;;;;;;;10.38;8.10;;;;;;;;;;5018393;28;20128;-80
2022/06/05 01:43:20;;;;;;;9.57;7.47;;;;;;;;;;5018625;28;20030;-80
2022/06/05 01:45:56;;;;;;;10.40;7.68;;;;;;;;;;5017992;28;20547;-79
2022/06/05 01:48:29;;;;;;;7.78;6.97;;;;;;;;;;5018362;28;20112;-80
2022/06/05 01:50:58;;;;;;;9.60;7.57;;;;;;;;;;5029951;28;20483;-80
2022/06/05 01:53:32;;;;;;;8.75;7.03;;;;;;;;;;5014417;28;20058;-81
2022/06/05 01:56:05;;;;;;;8.90;7.00;;;;;;;;;;5017670;28;20421;-80
2022/06/05 01:58:42;;;;;;;12.20;7.80;;;;;;;;;;5017219;28;20029;-80
2022/06/05 02:01:13;;;;;;;10.50;7.63;;;;;;;;;;5017280;28;20022;-80
2022/06/05 02:03:59;;;;;;;8.63;7.72;;;;;;;;;;5026726;28;20048;-80
2022/06/05 02:06:39;;;;;;;12.18;8.20;;;;;;;;;;5034806;28;20503;-80
2022/06/05 02:09:18;;;;;;;9.50;8.50;;;;;;;;;;5016107;28;20143;-80
2022/06/05 02:11:44;;;;;;;11.98;8.65;;;;;;;;;;5009793;28;20064;-80
2022/06/05 02:14:10;;;;;;;13.18;8.68;;;;;;;;;;5017552;28;20034;-80
2022/06/05 02:16:38;;;;;;;12.82;8.68;;;;;;;;;;5017276;28;20033;-80
2022/06/05 02:19:09;;;;;;;10.30;8.30;;;;;;;;;;5022592;28;20037;-80
2022/06/05 02:21:37;;;;;;;14.02;9.55;;;;;;;;;;5018652;28;20387;-80
2022/06/05 02:24:03;;;;;;;10.27;8.25;;;;;;;;;;5017044;28;20021;-80
2022/06/05 02:26:29;;;;;;;12.30;8.93;;;;;;;;;;5015780;28;20021;-79
2022/06/05 02:28:54;;;;;;;13.13;8.15;;;;;;;;;;5017685;28;20033;-79
2022/06/05 02:31:43;;;;;;;11.10;8.15;;;;;;;;;;5016795;28;20381;-80
2022/06/05 02:34:21;;;;;;;11.98;8.50;;;;;;;;;;5011007;28;20038;-81
2022/06/05 02:37:35;;;;;;;9.65;8.10;;;;;;;;;;5023128;28;20079;-79
2022/06/05 02:40:19;;;;;;;9.75;8.65;;;;;;;;;;5017452;28;20101;-81
2022/06/05 02:42:55;;;;;;;9.75;8.07;;;;;;;;;;5038890;28;20089;-81
2022/06/05 02:45:39;;;;;;;9.57;8.07;;;;;;;;;;5019457;28;20079;-81
2022/06/05 02:48:22;;;;;;;11.98;8.52;;;;;;;;;;5032013;28;20034;-80
2022/06/05 02:51:00;;;;;;;13.00;8.23;;;;;;;;;;5024746;28;20028;-80
2022/06/05 02:53:25;;;;;;;17.85;9.82;;;;;;;;;;5015999;28;20040;-80
2022/06/05 02:55:51;;;;;;;13.68;9.32;;;;;;;;;;5017059;28;20030;-80
2022/06/05 02:58:17;;;;;;;9.73;8.73;;;;;;;;;;5016980;28;20058;-80
2022/06/05 03:03:27;;;;;;;12.18;8.93;;;;;;;;;;5017213;28;20022;-80
2022/06/05 03:03:28;;;;;;;10.75;8.38;;;;;;;;;;5023896;28;20026;-80
2022/06/05 03:05:53;;;;;;;10.43;8.48;;;;;;;;;;5023045;28;20040;-80
2022/06/05 03:08:20;;;;;;;8.57;7.60;;;;;;;;;;5016136;28;20025;-80
2022/06/05 03:10:46;;;;;;;9.43;7.43;;;;;;;;;;5015884;28;20157;-80
2022/06/05 03:13:12;;;;;;;11.20;7.55;;;;;;;;;;5007890;28;20025;-80
2022/06/05 03:15:38;;;;;;;8.95;6.90;;;;;;;;;;5016647;28;20050;-80
2022/06/05 03:18:04;;;;;;;8.30;6.10;;;;;;;;;;5017028;28;20029;-80
2022/06/05 03:20:30;;;;;;;9.45;6.97;;;;;;;;;;5026409;28;20473;-80
2022/06/05 03:22:55;;;;;;;7.32;6.53;;;;;;;;;;5022091;28;20098;-80
2022/06/05 03:25:23;;;;;;;8.35;6.57;;;;;;;;;;5015973;28;20018;-80
2022/06/05 03:27:49;;;;;;;8.25;6.53;;;;;;;;;;5015371;28;20026;-79
2022/06/05 03:30:15;;;;;;;8.77;7.30;;;;;;;;;;5025480;28;20021;-79
2022/06/05 03:32:42;;;;;;;11.43;7.38;;;;;;;;;;5030882;28;20044;-80
2022/06/05 03:35:08;;;;;;;8.23;7.03;;;;;;;;;;5020158;28;20080;-80
2022/06/05 03:37:34;;;;;;;7.78;6.97;;;;;;;;;;5020262;28;20029;-80
2022/06/05 03:39:59;;;;;;;9.98;7.35;;;;;;;;;;5019856;28;20426;-80
2022/06/05 03:42:25;;;;;;;12.88;7.53;;;;;;;;;;5020370;28;20034;-80
2022/06/05 03:44:50;;;;;;;11.05;7.18;;;;;;;;;;5019389;28;20511;-80
2022/06/05 03:47:16;;;;;;;10.55;6.53;;;;;;;;;;5028408;28;20051;-80
2022/06/05 03:49:41;;;;;;;8.43;7.32;;;;;;;;;;5029309;28;20021;-80
2022/06/05 03:52:09;;;;;;;10.43;7.45;;;;;;;;;;5033795;28;20032;-80
2022/06/05 03:54:34;;;;;;;9.10;7.57;;;;;;;;;;5022181;28;20031;-80
2022/06/05 03:57:01;;;;;;;8.68;6.88;;;;;;;;;;5036229;28;20025;-80
2022/06/05 03:59:27;;;;;;;8.50;7.28;;;;;;;;;;5039065;28;20029;-80
2022/06/05 04:01:52;;;;;;;7.63;6.63;;;;;;;;;;5024464;28;20013;-80
2022/06/05 04:04:18;;;;;;;8.40;7.25;;;;;;;;;;5027615;28;20026;-80
2022/06/05 04:06:43;;;;;;;10.00;8.02;;;;;;;;;;5019092;28;20125;-79
2022/06/05 04:09:09;;;;;;;7.88;7.00;;;;;;;;;;5019838;28;20048;-79
2022/06/05 04:11:36;;;;;;;10.10;8.38;;;;;;;;;;5017420;28;20025;-79
2022/06/05 04:14:02;;;;;;;11.88;8.82;;;;;;;;;;5017964;28;20033;-80
2022/06/05 04:16:30;;;;;;;10.13;8.70;;;;;;;;;;5019022;28;20030;-80
2022/06/05 04:18:57;;;;;;;9.85;7.97;;;;;;;;;;5023969;28;20021;-80
2022/06/05 04:21:25;;;;;;;11.95;9.93;;;;;;;;;;5030620;28;20042;-81
2022/06/05 04:23:52;;;;;;;13.02;10.50;;;;;;;;;;5033143;28;20025;-81
2022/06/05 04:26:21;;;;;;;12.63;11.15;;;;;;;;;;5019127;28;20017;-81
2022/06/05 04:28:47;;;;;;;12.18;10.90;;;;;;;;;;5023941;28;20053;-81
2022/06/05 04:31:22;;;;;;;16.65;12.55;;;;;;;;;;5019254;28;20038;-81
2022/06/05 04:33:49;;;;;;;17.17;13.15;;;;;;;;;;5009100;28;20026;-81
2022/06/05 04:36:15;;;;;;;20.08;13.27;;;;;;;;;;4997959;28;20037;-81
2022/06/05 04:38:41;;;;;;;15.30;11.13;;;;;;;;;;5017892;28;20026;-81
2022/06/05 04:41:06;;;;;;;16.75;11.07;;;;;;;;;;5018374;28;20529;-81
2022/06/05 04:43:32;;;;;;;13.27;10.95;;;;;;;;;;5018643;28;20506;-80
2022/06/05 04:45:58;;;;;;;14.55;11.30;;;;;;;;;;5001380;28;20384;-81
2022/06/05 04:48:23;;;;;;;13.35;11.65;;;;;;;;;;5018660;28;20439;-79
2022/06/05 04:50:49;;;;;;;14.10;11.15;;;;;;;;;;5026302;28;20092;-80
2022/06/05 04:53:14;;;;;;;13.80;10.93;;;;;;;;;;5018193;28;20029;-81
2022/06/05 04:55:39;;;;;;;15.50;11.20;;;;;;;;;;5003034;28;20038;-80
2022/06/05 04:58:05;;;;;;;13.38;10.40;;;;;;;;;;5012617;28;20028;-80
2022/06/05 05:00:30;;;;;;;13.52;10.90;;;;;;;;;;5017343;28;20034;-80
2022/06/05 05:02:56;;;;;;;15.20;11.48;;;;;;;;;;5023703;28;20033;-79
2022/06/05 05:05:21;;;;;;;13.88;11.05;;;;;;;;;;5020864;28;20021;-80
2022/06/05 05:07:46;;;;;;;15.65;12.68;;;;;;;;;;5018895;28;20037;-79
2022/06/05 05:10:12;;;;;;;17.67;12.57;;;;;;;;;;5018276;28;20106;-81
2022/06/05 05:12:37;;;;;;;16.45;13.05;;;;;;;;;;5017842;28;20030;-80
2022/06/05 05:15:03;;;;;;;16.77;13.20;;;;;;;;;;5016657;28;20029;-82
2022/06/05 05:17:28;;;;;;;18.15;14.02;;;;;;;;;;5018430;28;20021;-83
2022/06/05 05:19:55;;;;;;;19.35;13.55;;;;;;;;;;5025964;28;20422;-83
2022/06/05 05:22:21;;;;;;;17.40;13.85;;;;;;;;;;5035260;28;20025;-82
2022/06/05 05:24:47;;;;;;;22.70;13.48;;;;;;;;;;5022670;28;20026;-82
2022/06/05 05:27:12;;;;;;;19.83;12.82;;;;;;;;;;5017851;28;20042;-82
2022/06/05 05:29:39;;;;;;;20.10;13.98;;;;;;;;;;5018651;28;20036;-81
2022/06/05 05:32:05;;;;;;;19.10;14.90;;;;;;;;;;5020618;28;20029;-83
2022/06/05 05:34:30;;;;;;;25.77;15.82;;;;;;;;;;5007680;28;20102;-83
2022/06/05 05:36:56;;;;;;;20.20;16.70;;;;;;;;;;5029052;28;20491;-83
2022/06/05 05:42:05;;;;;;;18.35;14.32;;;;;;;;;;5024691;28;20028;-82
2022/06/05 05:44:51;;;;;;;19.58;13.00;;;;;;;;;;5038132;28;20021;-82
2022/06/05 05:47:29;;;;;;;15.63;11.98;;;;;;;;;;5028780;28;20060;-83
2022/06/05 05:49:58;;;;;;;18.27;12.45;;;;;;;;;;5016503;28;20022;-83
2022/06/05 05:52:25;;;;;;;20.05;13.35;;;;;;;;;;5035255;28;20539;-83
2022/06/05 05:54:51;;;;;;;16.98;13.95;;;;;;;;;;5017514;28;20025;-83
2022/06/05 05:57:17;;;;;;;16.38;13.18;;;;;;;;;;5036241;28;20025;-83
2022/06/05 05:59:42;;;;;;;17.65;12.82;;;;;;;;;;5017803;28;20017;-83
2022/06/05 06:02:13;;;;;;;16.27;11.02;;;;;;;;;;5020489;28;20029;-82
2022/06/05 06:04:40;;;;;;;15.77;11.40;;;;;;;;;;5026959;28;20102;-83
2022/06/05 06:07:06;;;;;;;14.70;12.50;;;;;;;;;;5000244;28;20036;-84
2022/06/05 06:09:33;;;;;;;16.90;12.38;;;;;;;;;;5018155;28;20579;-83
2022/06/05 06:11:58;;;;;;;17.90;12.23;;;;;;;;;;5000676;28;20072;-83
2022/06/05 06:14:24;;;;;;;18.52;12.73;;;;;;;;;;5018441;28;20026;-84
2022/06/05 06:16:49;;;;;;;19.00;12.52;;;;;;;;;;5018698;28;20104;-84
2022/06/05 06:19:15;;;;;;;20.45;12.98;;;;;;;;;;5021059;28;20029;-84
2022/06/05 06:21:40;;;;;;;18.25;13.68;;;;;;;;;;5029784;28;20065;-85
2022/06/05 06:24:06;;;;;;;15.07;12.95;;;;;;;;;;5004893;28;20022;-84
2022/06/05 06:26:31;;;;;;;14.48;12.38;;;;;;;;;;5022553;28;20022;-85
2022/06/05 06:28:57;;;;;;;15.43;12.18;;;;;;;;;;5022534;28;20041;-84
2022/06/05 06:31:22;;;;;;;13.93;12.10;;;;;;;;;;5021816;28;20057;-84
2022/06/05 06:33:48;;;;;;;20.98;14.35;;;;;;;;;;5012586;28;20031;-84
2022/06/05 06:36:15;;;;;;;22.88;11.85;;;;;;;;;;5034890;28;20507;-84
2022/06/05 06:38:41;;;;;;;19.80;10.80;;;;;;;;;;5025372;28;20026;-83
2022/06/05 06:41:16;;;;;;;14.23;10.27;;;;;;;;;;5025302;28;20089;-83
2022/06/05 06:43:43;;;;;;;14.10;9.98;;;;;;;;;;4987517;28;20095;-82
2022/06/05 06:46:09;;;;;;;13.95;10.93;;;;;;;;;;4982924;28;20113;-84
2022/06/05 06:48:35;;;;;;;13.93;11.27;;;;;;;;;;5012523;28;20044;-85
2022/06/05 06:51:01;;;;;;;14.18;10.93;;;;;;;;;;5037623;28;20021;-82
2022/06/05 06:53:28;;;;;;;12.40;8.82;;;;;;;;;;5049554;28;20036;-84
2022/06/05 06:55:55;;;;;;;14.75;9.95;;;;;;;;;;5013190;28;20089;-84
2022/06/05 06:58:20;;;;;;;9.65;8.45;;;;;;;;;;5026294;28;20052;-84
2022/06/05 07:00:46;;;;;;;8.43;6.78;;;;;;;;;;5020287;28;20117;-83
2022/06/05 07:03:11;;;;;;;12.93;7.32;;;;;;;;;;5027329;28;20084;-83
2022/06/05 07:05:39;;;;;;;8.10;6.55;;;;;;;;;;5035230;28;20464;-84
2022/06/05 07:08:05;;;;;;;10.80;6.32;;;;;;;;;;5043118;28;20105;-83
2022/06/05 07:10:30;;;;;;;8.88;6.03;;;;;;;;;;5043388;28;20037;-83
2022/06/05 07:12:56;;;;;;;13.82;5.45;;;;;;;;;;5044574;28;20033;-83
2022/06/05 07:15:22;;;;;;;8.65;5.78;;;;;;;;;;5044059;28;20048;-84
2022/06/05 07:17:47;;;;;;;6.50;5.68;;;;;;;;;;5022885;28;20037;-83
2022/06/05 07:20:14;;;;;;;7.68;6.00;;;;;;;;;;5020244;28;20097;-83
2022/06/05 07:22:39;;;;;;;9.90;6.40;;;;;;;;;;5032559;28;20026;-84
2022/06/05 07:25:05;;;;;;;8.55;6.13;;;;;;;;;;5006166;28;20025;-83
2022/06/05 07:27:31;;;;;;;7.43;5.68;;;;;;;;;;5023631;28;20095;-83
2022/06/05 07:29:56;;;;;;;7.55;4.65;;;;;;;;;;5023981;28;20476;-83
2022/06/05 07:32:22;;;;;;;7.78;4.90;;;;;;;;;;5020471;28;20022;-82
2022/06/05 07:34:48;;;;;;;5.97;5.10;;;;;;;;;;5034091;28;20037;-82
2022/06/05 07:37:15;;;;;;;6.57;4.47;;;;;;;;;;5044601;28;20053;-82
2022/06/05 07:39:41;;;;;;;8.20;4.65;;;;;;;;;;5056034;28;20020;-80
2022/06/05 07:42:07;;;;;;;8.15;4.20;;;;;;;;;;5042372;28;20272;-80
2022/06/05 07:44:35;;;;;;;6.15;3.88;;;;;;;;;;5058517;28;20021;-80
2022/06/05 07:47:04;;;;;;;11.15;4.70;;;;;;;;;;5056918;28;20059;-79
2022/06/05 07:49:29;;;;;;;6.57;4.20;;;;;;;;;;5047417;28;20064;-79
2022/06/05 07:54:38;;;;;;;4.43;3.90;;;;;;;;;;5055266;28;20128;-79
2022/06/05 07:57:07;;;;;;;6.35;3.90;;;;;;;;;;5054289;28;20033;-79
2022/06/05 07:59:35;;;;;;;9.27;3.63;;;;;;;;;;5033697;28;20029;-81
2022/06/05 08:02:04;;;;;;;4.57;4.07;;;;;;;;;;5037238;28;20026;-81
2022/06/05 08:04:30;;;;;;;5.72;4.35;;;;;;;;;;5030274;28;20499;-81
2022/06/05 08:06:57;;;;;;;7.10;3.80;;;;;;;;;;5039711;28;20094;-81
2022/06/05 08:09:23;;;;;;;6.25;3.42;;;;;;;;;;5039794;28;20025;-81
2022/06/05 08:11:48;;;;;;;6.50;4.70;;;;;;;;;;5040333;28;20025;-81
2022/06/05 08:14:14;;;;;;;5.30;4.57;;;;;;;;;;5040099;28;20045;-80
2022/06/05 08:16:43;;;;;;;7.97;6.50;;;;;;;;;;5021064;28;20029;-81
2022/06/05 08:19:10;;;;;;;8.20;7.10;;;;;;;;;;5032693;28;20048;-81
2022/06/05 08:21:35;;;;;;;9.40;7.25;;;;;;;;;;5031970;28;20064;-81
2022/06/05 08:24:01;;;;;;;9.70;6.43;;;;;;;;;;5039251;28;20026;-81
2022/06/05 08:26:26;;;;;;;11.20;5.80;;;;;;;;;;5040102;28;20032;-81
2022/06/05 08:28:52;;;;;;;6.72;4.78;;;;;;;;;;5038849;28;20048;-81
2022/06/05 08:31:17;;;;;;;7.93;4.13;;;;;;;;;;5039261;28;20040;-80
2022/06/05 08:33:44;;;;;;;12.85;3.60;;;;;;;;;;5030487;28;20045;-80
2022/06/05 08:36:10;;;;;;;4.20;3.80;;;;;;;;;;5034580;28;20055;-80
2022/06/05 08:41:29;;;;;;;7.07;3.60;;;;;;;;;;5038499;28;20075;-80
2022/06/05 08:44:29;;;;;;;6.28;3.05;;;;;;;;;;5038622;28;20048;-79
2022/06/05 08:47:03;;;;;;;4.97;2.75;;;;;;;;;;5038092;28;20026;-81
2022/06/05 08:49:43;;;;;;;2.88;2.67;;;;;;;;;;5029555;28;20387;-80
2022/06/05 08:52:30;;;;;;;4.05;2.40;;;;;;;;;;5033525;28;20115;-80
2022/06/05 08:55:02;;;;;;;7.28;2.30;;;;;;;;;;5039135;28;20032;-80
2022/06/05 08:57:39;;;;;;;5.25;2.45;;;;;;;;;;5016998;28;20032;-80
2022/06/05 09:00:32;;;;;;;3.40;2.42;;;;;;;;;;5019223;28;20037;-80
2022/06/05 09:03:13;;;;;;;2.75;2.10;;;;;;;;;;5018619;28;20072;-80
2022/06/05 09:05:45;;;;;;;2.43;1.97;;;;;;;;;;5019076;28;20032;-80
2022/06/05 09:08:12;;;;;;;2.50;1.70;;;;;;;;;;5018585;28;20267;-80
2022/06/05 09:10:43;;;;;;;7.55;1.90;;;;;;;;;;5000856;28;20032;-80
2022/06/05 09:13:13;;;;;;;2.57;2.03;;;;;;;;;;5018578;28;20076;-80
2022/06/05 09:16:01;;;;;;;2.85;1.80;;;;;;;;;;5018696;28;20503;-80
2022/06/05 09:18:35;;;;;;;1.85;1.75;;;;;;;;;;5018581;28;20551;-80
2022/06/05 09:21:23;;;;;;;3.35;1.80;;;;;;;;;;5029666;28;20511;-80
2022/06/05 09:24:07;;;;;;;3.55;1.80;;;;;;;;;;5037697;28;20046;-80
2022/06/05 09:26:42;;;;;;;1.92;1.50;;;;;;;;;;5013719;28;20024;-80
2022/06/05 09:29:37;;;;;;;2.53;1.88;;;;;;;;;;5002767;28;20393;-80
2022/06/05 09:32:09;;;;;;;1.83;1.35;;;;;;;;;;5013248;28;20021;-80
2022/06/05 09:34:46;;;;;;;2.10;1.83;;;;;;;;;;5018063;28;20054;-80
2022/06/05 09:37:40;;;;;;;5.25;1.83;;;;;;;;;;5017600;28;20042;-80
2022/06/05 09:40:14;;;;;;;2.00;1.70;;;;;;;;;;4988766;28;20029;-81
2022/06/05 09:42:40;;;;;;;3.88;1.73;;;;;;;;;;5017169;28;20026;-81
2022/06/05 09:48:47;;;;;;;6.28;1.58;;;;;;;;;;5006962;28;20033;-80
2022/06/05 09:51:15;;;;;;;5.20;1.80;;;;;;;;;;5029882;28;20079;-79
2022/06/05 09:53:46;;;;;;;6.57;1.52;;;;;;;;;;5026634;28;20021;-80
2022/06/05 09:56:11;;;;;;;3.65;1.48;;;;;;;;;;5012992;28;20049;-81
2022/06/05 09:58:54;;;;;;;3.22;1.65;;;;;;;;;;5017464;28;20108;-80
2022/06/05 10:01:28;;;;;;;4.10;1.38;;;;;;;;;;5017941;28;20423;-81
2022/06/05 10:03:56;;;;;;;2.28;1.23;;;;;;;;;;5037409;28;20030;-80
2022/06/05 10:06:28;;;;;;;4.93;1.48;;;;;;;;;;5038835;28;20407;-81
2022/06/05 10:08:56;;;;;;;4.50;1.30;;;;;;;;;;5036359;28;20026;-81
2022/06/05 10:11:36;;;;;;;5.40;1.48;;;;;;;;;;5036868;28;20055;-80
2022/06/05 10:14:28;;;;;;;3.03;1.27;;;;;;;;;;5037420;28;20056;-80
2022/06/05 10:17:12;;;;;;;1.73;1.33;;;;;;;;;;5026732;28;20026;-79
2022/06/05 10:19:56;;;;;;;3.30;1.30;;;;;;;;;;5007445;28;20038;-80
2022/06/05 10:22:40;;;;;;;1.95;1.20;;;;;;;;;;5019913;28;20021;-80
2022/06/05 10:25:28;;;;;;;2.65;1.30;;;;;;;;;;5017248;28;20017;-80
2022/06/05 10:27:57;;;;;;;3.50;1.55;;;;;;;;;;5015920;28;20018;-80
2022/06/05 10:30:30;;;;;;;10.82;1.42;;;;;;;;;;4998816;28;20376;-81
2022/06/05 10:33:23;;;;;;;1.38;1.25;;;;;;;;;;5004474;28;20021;-80
2022/06/05 10:36:11;;;;;;;6.28;1.60;;;;;;;;;;5026162;28;20479;-80
2022/06/05 10:39:03;;;;;;;4.47;2.00;;;;;;;;;;5025748;28;20040;-80
2022/06/05 10:41:38;;;;;;;2.28;1.60;;;;;;;;;;5020758;28;20036;-80
2022/06/05 10:44:26;;;;;;;2.78;1.60;;;;;;;;;;5020921;28;20026;-81
2022/06/05 10:46:51;;;;;;;2.55;1.77;;;;;;;;;;5020469;28;20029;-80
2022/06/05 10:49:44;;;;;;;2.83;1.55;;;;;;;;;;5029003;28;20037;-80
2022/06/05 10:52:19;;;;;;;4.57;1.55;;;;;;;;;;5020912;28;20076;-80
2022/06/05 10:55:03;;;;;;;2.72;2.03;;;;;;;;;;5013357;28;20041;-80
2022/06/05 10:57:36;;;;;;;3.70;1.92;;;;;;;;;;5020188;28;20048;-80
2022/06/05 11:00:06;;;;;;;3.28;1.75;;;;;;;;;;5020876;28;20105;-81
2022/06/05 11:03:11;;;;;;;4.25;2.50;;;;;;;;;;5020500;28;20030;-80
2022/06/05 11:05:43;;;;;;;3.42;2.00;;;;;;;;;;4940817;29;20024;-81
2022/06/05 11:08:24;;;;;;;5.32;2.17;;;;;;;;;;5008281;28;20511;-81
2022/06/05 11:14:40;;;;;;;4.80;2.08;;;;;;;;;;5020436;28;20060;-80
2022/06/05 11:17:32;;;;;;;3.35;2.42;;;;;;;;;;4982913;28;20048;-80
2022/06/05 11:20:15;;;;;;;5.03;2.38;;;;;;;;;;5022320;28;20025;-80
2022/06/05 11:23:04;;;;;;;5.72;2.40;;;;;;;;;;5007787;28;20033;-80
2022/06/05 11:25:31;;;;;;;3.65;2.30;;;;;;;;;;5022268;28;20109;-80
2022/06/05 11:28:25;;;;;;;6.68;2.53;;;;;;;;;;5040700;28;20036;-79
2022/06/05 11:31:29;;;;;;;5.03;2.38;;;;;;;;;;5039074;28;20036;-80
2022/06/05 11:34:20;;;;;;;5.95;2.60;;;;;;;;;;5026621;28;20392;-79
2022/06/05 11:36:54;;;;;;;6.27;2.50;;;;;;;;;;5014272;28;20026;-79
2022/06/05 11:39:29;;;;;;;5.68;2.63;;;;;;;;;;5018788;28;20108;-80
2022/06/05 11:42:12;;;;;;;6.60;2.80;;;;;;;;;;5020401;28;20087;-79
2022/06/05 11:44:52;;;;;;;6.53;2.63;;;;;;;;;;5020427;28;20037;-79
2022/06/05 11:47:39;;;;;;;5.75;2.40;;;;;;;;;;5019531;28;20384;-81
2022/06/05 11:50:31;;;;;;;6.53;2.70;;;;;;;;;;5023462;28;20416;-81
2022/06/05 11:53:26;;;;;;;5.40;2.63;;;;;;;;;;4992595;28;20034;-81
2022/06/05 11:56:00;;;;;;;3.63;2.10;;;;;;;;;;5039969;28;20029;-80
2022/06/05 11:58:39;;;;;;;5.28;2.90;;;;;;;;;;5039452;28;20087;-80
2022/06/05 12:01:19;;;;;;;3.30;2.30;;;;;;;;;;5039451;28;20531;-80
2022/06/05 12:04:10;;;;;;;3.70;2.42;;;;;;;;;;5029806;28;20490;-80
2022/06/05 12:06:48;;;;;;;4.68;2.00;;;;;;;;;;5024864;28;20096;-80
2022/06/05 12:12:47;;;;;;;6.20;2.17;;;;;;;;;;5026750;28;20044;-80
2022/06/05 12:15:39;;;;;;;6.20;2.10;;;;;;;;;;5034784;28;20030;-80
2022/06/05 12:18:16;;;;;;;3.90;1.80;;;;;;;;;;5033427;28;20022;-80
2022/06/05 12:20:52;;;;;;;7.78;2.42;;;;;;;;;;5001215;28;20029;-80
2022/06/05 12:23:28;;;;;;;6.43;4.10;;;;;;;;;;5000683;28;20022;-81
2022/06/05 12:25:59;;;;;;;5.82;2.25;;;;;;;;;;5018869;28;20427;-80
2022/06/05 12:28:34;;;;;;;4.68;2.38;;;;;;;;;;5017294;28;20079;-80
2022/06/05 12:31:09;;;;;;;3.35;2.20;;;;;;;;;;5000828;28;20053;-80
2022/06/05 12:34:01;;;;;;;3.10;1.80;;;;;;;;;;5026602;28;20029;-80
2022/06/05 12:36:35;;;;;;;4.03;2.28;;;;;;;;;;5023386;28;20033;-80
2022/06/05 12:39:07;;;;;;;5.20;2.17;;;;;;;;;;5038246;28;20079;-80
2022/06/05 12:41:59;;;;;;;10.55;2.20;;;;;;;;;;5041509;28;20021;-80
2022/06/05 12:44:59;;;;;;;3.97;1.48;;;;;;;;;;5020681;28;20032;-80
2022/06/05 12:48:04;;;;;;;4.72;1.73;;;;;;;;;;5017068;28;20069;-80
2022/06/05 12:50:48;;;;;;;8.70;1.90;;;;;;;;;;5030474;28;20479;-80
2022/06/05 12:53:22;;;;;;;4.28;1.70;;;;;;;;;;5021972;28;20100;-81
2022/06/05 12:55:54;;;;;;;6.10;2.38;;;;;;;;;;5020247;28;20026;-81
2022/06/05 12:58:34;;;;;;;6.03;1.70;;;;;;;;;;5020435;28;20041;-80
2022/06/05 13:01:07;;;;;;;5.85;2.08;;;;;;;;;;5002130;28;20026;-79
2022/06/05 13:03:57;;;;;;;3.47;1.58;;;;;;;;;;5028587;28;20026;-80
2022/06/05 13:06:44;;;;;;;5.93;1.83;;;;;;;;;;5035338;28;20049;-81
2022/06/05 13:09:23;;;;;;;3.22;1.50;;;;;;;;;;5019979;28;20032;-81
2022/06/05 13:12:23;;;;;;;3.33;1.92;;;;;;;;;;5020531;28;20059;-81
2022/06/05 13:14:57;;;;;;;4.50;1.70;;;;;;;;;;4953349;28;20491;-80
2022/06/05 13:17:39;;;;;;;6.97;1.90;;;;;;;;;;5019482;28;20036;-80
2022/06/05 13:20:17;;;;;;;;;;;;;;;;;;5008845;28;20026;-80
2022/06/05 13:23:04;;;;;;;3.50;1.48;;;;;;;;;;5022291;28;19909;-80
2022/06/05 13:25:50;;;;;;;4.68;1.88;;;;;;;;;;5037576;28;20017;-80
2022/06/05 13:28:45;;;;;;;5.10;2.35;;;;;;;;;;5037057;28;20029;-80
2022/06/05 13:31:23;;;;;;;6.20;1.67;;;;;;;;;;5037770;28;20033;-80
2022/06/05 13:33:48;;;;;;;3.05;1.52;;;;;;;;;;5026710;28;20026;-81
2022/06/05 13:36:29;;;;;;;5.85;1.67;;;;;;;;;;5032782;22;20132;-80
2022/06/05 13:39:26;;;;;;;2.40;1.50;;;;;;;;;;5030374;28;20029;-80
2022/06/05 13:41:54;;;;;;;7.38;1.60;;;;;;;;;;5037545;28;20028;-80
2022/06/05 13:44:23;;;;;;;4.40;1.88;;;;;;;;;;5036712;28;20099;-81
2022/06/05 13:46:57;;;;;;;2.97;1.50;;;;;;;;;;5036027;28;20049;-81
2022/06/05 13:49:41;;;;;;;5.90;1.17;;;;;;;;;;5027140;28;20420;-82
2022/06/05 13:52:50;;;;;;;1.67;0.88;;;;;;;;;;5026720;28;20025;-80
2022/06/05 13:55:19;;;;;;;2.88;0.95;;;;;;;;;;4948871;29;20031;-79
2022/06/05 13:58:04;;;;;;;2.50;0.77;;;;;;;;;;5025131;28;20526;-79
2022/06/05 14:00:46;;;;;;;1.38;0.93;;;;;;;;;;5035027;28;20072;-79
2022/06/05 14:03:15;;;;;;;1.38;1.00;;;;;;;;;;5034808;28;20029;-81
2022/06/05 14:05:40;;;;;;;3.08;1.05;;;;;;;;;;5051092;28;20087;-79
2022/06/05 14:08:12;;;;;;;3.30;0.90;;;;;;;;;;5039244;28;20077;-81
2022/06/05 14:11:03;;;;;;;0.80;0.77;;;;;;;;;;5037539;28;20028;-80
2022/06/05 14:13:38;;;;;;;1.30;1.13;;;;;;;;;;5024108;28;20056;-81
2022/06/05 14:16:04;;;;;;;0.88;0.88;;;;;;;;;;5037915;28;20017;-80
2022/06/05 14:19:04;;;;;;;3.25;1.40;;;;;;;;;;5037643;28;20028;-80
2022/06/05 14:21:34;;;;;;;2.03;1.30;;;;;;;;;;4985789;28;20606;-78
2022/06/05 14:24:06;;;;;;;2.67;1.30;;;;;;;;;;5019405;28;20021;-80
2022/06/05 14:26:37;;;;;;;4.70;1.67;;;;;;;;;;5037589;28;20028;-80
2022/06/05 14:29:06;;;;;;;1.20;1.10;;;;;;;;;;5020097;28;20101;-80
2022/06/05 14:31:32;;;;;;;1.95;1.20;;;;;;;;;;5037903;28;20025;-79
2022/06/05 14:34:04;;;;;;;2.67;1.30;;;;;;;;;;5045471;28;20104;-80
2022/06/05 14:36:48;;;;;;;3.10;1.50;;;;;;;;;;5054957;28;20024;-80
2022/06/05 14:39:30;;;;;;;3.08;1.40;;;;;;;;;;5056923;28;20055;-81
2022/06/05 14:42:02;;;;;;;7.22;2.03;;;;;;;;;;5056669;28;20024;-81
2022/06/05 14:44:38;;;;;;;4.95;1.90;;;;;;;;;;5057029;28;20028;-80
2022/06/05 14:47:30;;;;;;;4.43;1.98;;;;;;;;;;5056381;28;20017;-81
2022/06/05 14:49:58;;;;;;;;;;;;;;;;;;5023028;28;20084;-81
2022/06/05 14:52:29;;;;;;;3.35;1.80;;;;;;;;;;5035033;28;19986;-81
2022/06/05 14:58:24;;;;;;;4.35;2.45;;;;;;;;;;5036748;28;20044;-81
2022/06/05 15:01:06;;;;;;;10.32;3.08;;;;;;;;;;5036932;28;20021;-80
2022/06/05 15:03:58;;;;;;;5.05;2.45;;;;;;;;;;5044069;28;20051;-81
2022/06/05 15:06:32;;;;;;;3.13;1.92;;;;;;;;;;5054264;28;20017;-80
2022/06/05 15:09:06;;;;;;;3.22;1.90;;;;;;;;;;5056027;28;20456;-79
2022/06/05 15:11:50;;;;;;;2.97;1.70;;;;;;;;;;5034913;28;20017;-79
2022/06/05 15:14:55;;;;;;;1.70;1.30;;;;;;;;;;5036455;28;20045;-79
2022/06/05 15:17:30;;;;;;;5.57;1.95;;;;;;;;;;4999141;28;20109;-80
2022/06/05 15:19:58;;;;;;;4.95;1.70;;;;;;;;;;5038043;28;20022;-81
2022/06/05 15:22:45;;;;;;;3.30;1.73;;;;;;;;;;5040751;28;20043;-81
2022/06/05 15:25:28;;;;;;;5.28;2.00;;;;;;;;;;5033120;28;20029;-78
2022/06/05 15:28:37;;;;;;;7.20;2.85;;;;;;;;;;5039306;28;20471;-80
2022/06/05 15:31:10;;;;;;;4.78;2.03;;;;;;;;;;5039856;28;20049;-81
2022/06/05 15:34:21;;;;;;;13.48;2.10;;;;;;;;;;5030199;28;20486;-82
2022/06/05 15:36:46;;;;;;;11.15;2.80;;;;;;;;;;5039898;28;20029;-84
2022/06/05 15:39:36;;;;;;;11.48;2.60;;;;;;;;;;5040200;28;20495;-84
2022/06/05 15:42:28;;;;;;;5.30;1.90;;;;;;;;;;5020822;28;20076;-81
2022/06/05 15:45:12;;;;;;;;;;;;;;;;;;5033810;28;20044;-83